createdAt,value
2023-05-06T00:01:00.843Z,101791.34
2023-05-06T00:03:28.217Z,101788.38
2023-05-06T00:05:54.828Z,101783.94
2023-05-06T00:08:21.606Z,101780.31
2023-05-06T00:10:48.125Z,101786.09
2023-05-06T00:13:14.688Z,101784.47
2023-05-06T00:15:41.142Z,101788.91
2023-05-06T00:18:07.753Z,101785.47
2023-05-06T00:20:34.216Z,101786.44
2023-05-06T00:23:01.101Z,101792.38
2023-05-06T00:25:27.676Z,101788.91
2023-05-06T00:27:54.158Z,101794.66
2023-05-06T00:30:20.687Z,101787.88
2023-05-06T00:32:47.252Z,101779.66
2023-05-06T00:35:13.777Z,101782.78
2023-05-06T00:37:40.729Z,101787.22
2023-05-06T00:40:08.076Z,101780.31
2023-05-06T00:42:34.514Z,101780.31
2023-05-06T00:45:01.206Z,101779.50
2023-05-06T00:47:27.885Z,101779.50
2023-05-06T00:49:54.398Z,101771.44
2023-05-06T00:52:21.119Z,101779.50
2023-05-06T00:54:47.690Z,101784.78
2023-05-06T00:57:14.278Z,101777.53
2023-05-06T00:59:40.805Z,101781.97
2023-05-06T01:02:07.267Z,101785.09
2023-05-06T01:04:33.836Z,101776.22
2023-05-06T01:07:26.661Z,101772.94
2023-05-06T01:10:00.757Z,101771.13
2023-05-06T01:12:32.465Z,101768.66
2023-05-06T01:15:10.242Z,101762.72
2023-05-06T01:17:42.656Z,101763.88
2023-05-06T01:20:15.322Z,101771.78
2023-05-06T01:22:42.201Z,101762.41
2023-05-06T01:25:19.250Z,101763.22
2023-05-06T01:27:45.692Z,101763.22
2023-05-06T01:30:14.012Z,101770.47
2023-05-06T01:32:59.665Z,101766.19
2023-05-06T01:35:35.185Z,101755.31
2023-05-06T01:38:34.993Z,101751.22
2023-05-06T01:41:02.737Z,101747.25
2023-05-06T01:43:34.876Z,101749.41
2023-05-06T01:46:02.752Z,101754.81
2023-05-06T01:48:33.675Z,101753.31
2023-05-06T01:51:00.164Z,101747.41
2023-05-06T01:53:26.732Z,101755.31
2023-05-06T01:55:53.202Z,101751.19
2023-05-06T01:58:19.619Z,101754.00
2023-05-06T02:00:46.090Z,101761.22
2023-05-06T02:03:12.980Z,101762.34
2023-05-06T02:05:39.496Z,101765.44
2023-05-06T02:08:05.950Z,101762.19
2023-05-06T02:10:32.370Z,101766.13
2023-05-06T02:12:58.951Z,101767.25
2023-05-06T02:15:25.449Z,101763.81
2023-05-06T02:17:52.085Z,101771.53
2023-05-06T02:20:18.627Z,101772.69
2023-05-06T02:22:45.061Z,101772.19
2023-05-06T02:25:11.657Z,101773.97
2023-05-06T02:27:38.300Z,101772.50
2023-05-06T02:30:06.249Z,101777.91
2023-05-06T02:32:32.856Z,101781.72
2023-05-06T02:34:59.318Z,101771.50
2023-05-06T02:37:25.849Z,101769.19
2023-05-06T02:39:52.298Z,101771.00
2023-05-06T02:42:18.888Z,101772.97
2023-05-06T02:44:45.405Z,101769.81
2023-05-06T02:47:11.853Z,101775.91
2023-05-06T02:49:38.415Z,101774.44
2023-05-06T02:52:05.225Z,101769.47
2023-05-06T02:54:31.756Z,101771.63
2023-05-06T02:56:58.269Z,101764.34
2023-05-06T02:59:24.732Z,101767.28
2023-05-06T03:01:51.130Z,101764.66
2023-05-06T03:04:17.699Z,101772.72
2023-05-06T03:06:44.217Z,101772.22
2023-05-06T03:09:10.633Z,101767.56
2023-05-06T03:11:37.038Z,101769.69
2023-05-06T03:14:03.509Z,101769.34
2023-05-06T03:16:29.990Z,101765.41
2023-05-06T03:18:56.434Z,101762.91
2023-05-06T03:21:22.948Z,101764.41
2023-05-06T03:23:49.422Z,101759.81
2023-05-06T03:26:15.887Z,101758.16
2023-05-06T03:28:44.565Z,101763.91
2023-05-06T03:31:11.243Z,101753.03
2023-05-06T03:33:37.797Z,101763.69
2023-05-06T03:36:05.057Z,101763.84
2023-05-06T03:38:31.530Z,101763.34
2023-05-06T03:40:57.984Z,101757.09
2023-05-06T03:43:24.434Z,101759.72
2023-05-06T03:45:50.982Z,101760.72
2023-05-06T03:48:17.496Z,101764.47
2023-05-06T03:50:44.057Z,101762.03
2023-05-06T03:53:10.609Z,101761.34
2023-05-06T03:55:37.267Z,101765.63
2023-05-06T03:58:03.726Z,101760.50
2023-05-06T04:00:30.126Z,101768.41
2023-05-06T04:02:56.655Z,101768.41
2023-05-06T04:05:23.209Z,101765.63
2023-05-06T04:07:49.733Z,101770.41
2023-05-06T04:10:16.284Z,101765.66
2023-05-06T04:12:42.736Z,101763.03
2023-05-06T04:15:10.616Z,101775.50
2023-05-06T04:17:37.376Z,101768.09
2023-05-06T04:20:04.764Z,101768.56
2023-05-06T04:22:31.578Z,101760.31
2023-05-06T04:25:00.711Z,101762.13
2023-05-06T04:27:29.720Z,101761.28
2023-05-06T04:29:56.806Z,101766.25
2023-05-06T04:32:25.343Z,101769.38
2023-05-06T04:34:53.572Z,101765.25
2023-05-06T04:37:21.089Z,101764.31
2023-05-06T04:39:47.600Z,101775.47
2023-05-06T04:42:14.500Z,101782.53
2023-05-06T04:44:41.950Z,101781.41
2023-05-06T04:47:08.382Z,101792.94
2023-05-06T04:49:35.289Z,101784.72
2023-05-06T04:52:01.991Z,101792.16
2023-05-06T04:54:28.583Z,101788.75
2023-05-06T04:56:55.052Z,101790.09
2023-05-06T04:59:21.571Z,101798.81
2023-05-06T05:01:48.234Z,101794.59
2023-05-06T05:04:14.670Z,101803.34
2023-05-06T05:06:41.141Z,101806.84
2023-05-06T05:09:07.632Z,101813.94
2023-05-06T05:11:37.474Z,101810.81
2023-05-06T05:14:04.365Z,101815.75
2023-05-06T05:16:30.973Z,101817.25
2023-05-06T05:18:57.476Z,101816.59
2023-05-06T05:21:23.950Z,101818.44
2023-05-06T05:23:50.476Z,101822.28
2023-05-06T05:26:16.957Z,101814.06
2023-05-06T05:28:44.650Z,101818.19
2023-05-06T05:31:11.265Z,101808.97
2023-05-06T05:33:37.757Z,101814.09
2023-05-06T05:36:04.884Z,101813.09
2023-05-06T05:38:31.409Z,101815.38
2023-05-06T05:40:57.950Z,101818.84
2023-05-06T05:43:25.984Z,101819.81
2023-05-06T05:45:52.584Z,101814.00
2023-05-06T05:48:19.031Z,101812.00
2023-05-06T05:50:46.166Z,101810.47
2023-05-06T05:53:12.587Z,101810.81
2023-05-06T05:55:39.027Z,101818.00
2023-05-06T05:58:05.495Z,101816.53
2023-05-06T06:00:32.201Z,101814.06
2023-05-06T06:02:58.773Z,101819.63
2023-05-06T06:05:25.429Z,101823.75
2023-05-06T06:07:51.899Z,101828.03
2023-05-06T06:10:18.429Z,101826.53
2023-05-06T06:12:44.919Z,101819.09
2023-05-06T06:15:11.719Z,101819.38
2023-05-06T06:17:38.522Z,101825.31
2023-05-06T06:20:05.969Z,101821.97
2023-05-06T06:22:32.481Z,101820.47
2023-05-06T06:24:59.045Z,101828.50
2023-05-06T06:27:25.591Z,101822.16
2023-05-06T06:29:52.078Z,101815.25
2023-05-06T06:32:19.582Z,101829.22
2023-05-06T06:34:46.084Z,101830.81
2023-05-06T06:37:12.823Z,101826.97
2023-05-06T06:39:39.265Z,101827.91
2023-05-06T06:42:06.962Z,101825.03
2023-05-06T06:44:36.853Z,101819.22
2023-05-06T06:47:03.332Z,101826.59
2023-05-06T06:49:31.223Z,101822.25
2023-05-06T06:51:57.755Z,101830.38
2023-05-06T06:54:24.424Z,101837.13
2023-05-06T06:56:55.948Z,101831.66
2023-05-06T06:59:22.431Z,101843.88
2023-05-06T07:01:48.868Z,101841.53
2023-05-06T07:04:15.315Z,101848.09
2023-05-06T07:06:41.804Z,101839.50
2023-05-06T07:09:08.565Z,101844.44
2023-05-06T07:11:35.024Z,101841.72
2023-05-06T07:14:01.558Z,101846.44
2023-05-06T07:16:28.112Z,101848.09
2023-05-06T07:18:54.619Z,101838.06
2023-05-06T07:21:21.134Z,101844.53
2023-05-06T07:23:47.634Z,101849.38
2023-05-06T07:26:14.104Z,101856.66
2023-05-06T07:28:40.876Z,101860.56
2023-05-06T07:31:07.387Z,101856.91
2023-05-06T07:33:33.873Z,101861.38
2023-05-06T07:36:00.446Z,101855.34
2023-05-06T07:38:27.319Z,101858.06
2023-05-06T07:40:53.884Z,101859.41
2023-05-06T07:43:22.437Z,101852.72
2023-05-06T07:45:49.033Z,101855.56
2023-05-06T07:48:17.000Z,101854.81
2023-05-06T07:50:45.115Z,101856.25
2023-05-06T07:53:11.832Z,101854.88
2023-05-06T07:55:38.303Z,101856.06
2023-05-06T07:58:04.718Z,101856.00
2023-05-06T08:00:31.257Z,101861.47
2023-05-06T08:02:57.850Z,101857.31
2023-05-06T08:05:24.515Z,101861.66
2023-05-06T08:07:51.539Z,101863.06
2023-05-06T08:10:18.638Z,101859.53
2023-05-06T08:12:45.222Z,101851.84
2023-05-06T08:15:12.286Z,101865.78
2023-05-06T08:17:38.990Z,101862.47
2023-05-06T08:20:07.129Z,101859.28
2023-05-06T08:22:33.542Z,101860.84
2023-05-06T08:25:01.005Z,101865.59
2023-05-06T08:27:27.532Z,101867.13
2023-05-06T08:29:53.959Z,101875.53
2023-05-06T08:32:20.434Z,101869.31
2023-05-06T08:34:46.890Z,101868.78
2023-05-06T08:37:13.394Z,101873.50
2023-05-06T08:39:39.858Z,101873.53
2023-05-06T08:42:10.062Z,101873.38
2023-05-06T08:44:36.716Z,101867.63
2023-05-06T08:47:03.667Z,101865.22
2023-05-06T08:49:30.229Z,101866.88
2023-05-06T08:51:58.117Z,101871.59
2023-05-06T08:54:26.514Z,101864.44
2023-05-06T08:56:55.193Z,101867.69
2023-05-06T08:59:24.950Z,101864.81
2023-05-06T09:01:52.211Z,101868.09
2023-05-06T09:04:19.368Z,101866.66
2023-05-06T09:06:46.192Z,101858.47
2023-05-06T09:09:14.733Z,101859.31
2023-05-06T09:11:41.252Z,101856.84
2023-05-06T09:14:13.122Z,101863.19
2023-05-06T09:16:42.051Z,101854.41
2023-05-06T09:19:08.683Z,101856.03
2023-05-06T09:21:39.289Z,101849.69
2023-05-06T09:24:07.516Z,101859.94
2023-05-06T09:26:36.071Z,101852.75
2023-05-06T09:29:03.642Z,101853.34
2023-05-06T09:31:30.918Z,101854.59
2023-05-06T09:33:58.980Z,101855.22
2023-05-06T09:36:27.454Z,101852.72
2023-05-06T09:38:55.833Z,101849.88
2023-05-06T09:41:27.051Z,101837.16
2023-05-06T09:43:54.399Z,101842.72
2023-05-06T09:46:22.424Z,101846.38
2023-05-06T09:48:53.857Z,101842.25
2023-05-06T09:51:21.072Z,101846.13
2023-05-06T09:53:47.851Z,101842.84
2023-05-06T09:56:16.288Z,101838.78
2023-05-06T09:58:43.561Z,101835.31
2023-05-06T10:01:17.066Z,101833.44
2023-05-06T10:03:51.767Z,101829.09
2023-05-06T10:06:20.134Z,101835.22
2023-05-06T10:08:48.150Z,101833.75
2023-05-06T10:11:15.161Z,101838.69
2023-05-06T10:13:42.690Z,101843.94
2023-05-06T10:16:10.791Z,101840.41
2023-05-06T10:18:38.901Z,101835.47
2023-05-06T10:21:09.123Z,101825.47
2023-05-06T10:24:11.362Z,101826.22
2023-05-06T10:26:38.983Z,101824.31
2023-05-06T10:29:09.819Z,101827.59
2023-05-06T10:31:43.805Z,101819.09
2023-05-06T10:34:10.939Z,101825.19
2023-05-06T10:36:40.097Z,101824.91
2023-05-06T10:39:10.220Z,101827.47
2023-05-06T10:41:37.510Z,101816.72
2023-05-06T10:44:04.120Z,101808.50
2023-05-06T10:46:31.147Z,101811.91
2023-05-06T10:49:06.731Z,101812.28
2023-05-06T10:51:34.656Z,101809.69
2023-05-06T10:54:06.732Z,101801.69
2023-05-06T10:56:59.882Z,101805.91
2023-05-06T10:59:31.375Z,101794.91
2023-05-06T11:02:04.530Z,101803.44
2023-05-06T11:04:31.636Z,101798.66
2023-05-06T11:07:15.657Z,101809.56
2023-05-06T11:09:59.361Z,101803.44
2023-05-06T11:12:44.778Z,101809.72
2023-05-06T11:15:43.800Z,101808.25
2023-05-06T11:18:26.393Z,101803.41
2023-05-06T11:21:04.883Z,101804.53
2023-05-06T11:23:46.908Z,101803.66
2023-05-06T11:26:13.825Z,101805.50
2023-05-06T11:28:43.830Z,101799.28
2023-05-06T11:31:12.553Z,101802.59
2023-05-06T11:33:46.441Z,101795.22
2023-05-06T11:36:18.273Z,101790.06
2023-05-06T11:38:49.544Z,101800.44
2023-05-06T11:41:17.167Z,101802.75
2023-05-06T11:43:47.567Z,101790.97
2023-05-06T11:46:14.044Z,101793.78
2023-05-06T11:48:40.464Z,101794.81
2023-05-06T11:51:08.247Z,101786.09
2023-05-06T11:53:34.753Z,101789.75
2023-05-06T11:56:01.786Z,101782.44
2023-05-06T11:58:29.317Z,101791.66
2023-05-06T12:00:56.757Z,101791.72
2023-05-06T12:03:25.014Z,101801.38
2023-05-06T12:05:52.097Z,101792.66
2023-05-06T12:08:28.070Z,101795.84
2023-05-06T12:10:58.599Z,101793.75
2023-05-06T12:13:25.252Z,101789.44
2023-05-06T12:15:54.620Z,101787.81
2023-05-06T12:18:21.967Z,101790.81
2023-05-06T12:20:48.475Z,101788.88
2023-05-06T12:23:16.062Z,101786.47
2023-05-06T12:25:44.743Z,101785.69
2023-05-06T12:28:18.814Z,101792.19
2023-05-06T12:30:45.893Z,101784.75
2023-05-06T12:33:13.011Z,101790.00
2023-05-06T12:35:40.967Z,101788.81
2023-05-06T12:38:15.420Z,101789.50
2023-05-06T12:40:43.709Z,101786.03
2023-05-06T12:43:11.221Z,101794.25
2023-05-06T12:45:39.635Z,101785.78
2023-05-06T12:48:07.165Z,101780.25
2023-05-06T12:50:36.304Z,101785.31
2023-05-06T12:53:04.240Z,101771.53
2023-05-06T12:55:32.150Z,101777.22
2023-05-06T12:57:58.690Z,101780.72
2023-05-06T13:00:25.273Z,101779.19
2023-05-06T13:02:52.071Z,101776.91
2023-05-06T13:05:18.706Z,101776.75
2023-05-06T13:07:45.207Z,101773.97
2023-05-06T13:10:12.194Z,101775.53
2023-05-06T13:12:39.177Z,101779.00
2023-05-06T13:15:06.323Z,101779.19
2023-05-06T13:17:32.919Z,101773.56
2023-05-06T13:19:59.420Z,101775.91
2023-05-06T13:22:25.934Z,101779.09
2023-05-06T13:24:52.406Z,101772.81
2023-05-06T13:27:18.869Z,101780.56
2023-05-06T13:29:45.635Z,101778.78
2023-05-06T13:32:12.057Z,101782.44
2023-05-06T13:34:38.711Z,101784.06
2023-05-06T13:37:05.463Z,101772.84
2023-05-06T13:39:32.161Z,101770.97
2023-05-06T13:41:59.648Z,101770.03
2023-05-06T13:44:26.484Z,101777.03
2023-05-06T13:46:53.160Z,101761.06
2023-05-06T13:49:20.005Z,101759.63
2023-05-06T13:51:46.475Z,101758.56
2023-05-06T13:54:13.069Z,101747.31
2023-05-06T13:56:39.596Z,101754.00
2023-05-06T13:59:08.060Z,101750.00
2023-05-06T14:01:35.202Z,101745.56
2023-05-06T14:04:01.809Z,101748.25
2023-05-06T14:06:29.278Z,101744.50
2023-05-06T14:08:55.854Z,101744.78
2023-05-06T14:11:22.532Z,101737.09
2023-05-06T14:13:49.130Z,101743.16
2023-05-06T14:16:16.795Z,101735.22
2023-05-06T14:18:43.491Z,101728.25
2023-05-06T14:21:09.910Z,101725.63
2023-05-06T14:23:37.907Z,101726.41
2023-05-06T14:26:04.491Z,101727.44
2023-05-06T14:28:31.058Z,101730.34
2023-05-06T14:30:58.157Z,101728.75
2023-05-06T14:33:24.637Z,101724.28
2023-05-06T14:35:52.827Z,101726.44
2023-05-06T14:38:19.943Z,101723.25
2023-05-06T14:40:46.737Z,101719.63
2023-05-06T14:43:13.255Z,101715.44
2023-05-06T14:45:39.744Z,101714.63
2023-05-06T14:48:06.734Z,101710.06
2023-05-06T14:50:33.491Z,101715.16
2023-05-06T14:53:02.232Z,101716.22
2023-05-06T14:55:29.970Z,101709.69
2023-05-06T14:57:57.159Z,101713.06
2023-05-06T15:00:23.767Z,101712.13
2023-05-06T15:02:50.410Z,101709.66
2023-05-06T15:05:17.093Z,101710.25
2023-05-06T15:07:43.827Z,101710.47
2023-05-06T15:10:10.616Z,101713.94
2023-05-06T15:12:37.419Z,101704.16
2023-05-06T15:15:05.138Z,101716.94
2023-05-06T15:17:32.187Z,101712.56
2023-05-06T15:19:58.730Z,101711.69
2023-05-06T15:22:25.288Z,101713.31
2023-05-06T15:24:51.962Z,101709.50
2023-05-06T15:27:18.442Z,101717.00
2023-05-06T15:29:44.906Z,101712.56
2023-05-06T15:32:11.398Z,101708.56
2023-05-06T15:34:38.030Z,101706.06
2023-05-06T15:37:04.602Z,101703.31
2023-05-06T15:39:38.813Z,101702.53
2023-05-06T15:42:05.645Z,101707.50
2023-05-06T15:44:33.760Z,101705.03
2023-05-06T15:47:00.355Z,101698.53
2023-05-06T15:49:49.346Z,101710.22
2023-05-06T15:52:13.402Z,101704.84
2023-05-06T15:54:40.957Z,101706.53
2023-05-06T15:57:07.735Z,101709.31
2023-05-06T15:59:35.131Z,101709.00
2023-05-06T16:02:26.244Z,101711.25
2023-05-06T16:04:48.396Z,101705.69
2023-05-06T16:07:15.653Z,101710.50
2023-05-06T16:09:42.900Z,101707.94
2023-05-06T16:12:10.094Z,101706.63
2023-05-06T16:14:36.634Z,101705.84
2023-05-06T16:17:03.184Z,101713.66
2023-05-06T16:19:32.062Z,101710.34
2023-05-06T16:21:58.638Z,101720.34
2023-05-06T16:24:25.148Z,101707.72
2023-05-06T16:26:51.836Z,101713.56
2023-05-06T16:29:20.543Z,101720.75
2023-05-06T16:31:48.032Z,101715.06
2023-05-06T16:34:15.173Z,101714.50
2023-05-06T16:36:41.754Z,101710.09
2023-05-06T16:39:08.506Z,101708.47
2023-05-06T16:41:35.046Z,101714.28
2023-05-06T16:44:01.968Z,101709.66
2023-05-06T16:46:28.942Z,101714.44
2023-05-06T16:48:55.911Z,101710.88
2023-05-06T16:51:22.931Z,101716.16
2023-05-06T16:53:49.441Z,101715.81
2023-05-06T16:56:16.148Z,101715.16
2023-05-06T16:58:42.994Z,101718.06
2023-05-06T17:01:09.797Z,101713.81
2023-05-06T17:03:40.309Z,101716.97
2023-05-06T17:06:07.750Z,101721.75
2023-05-06T17:08:36.455Z,101721.69
2023-05-06T17:11:06.555Z,101718.66
2023-05-06T17:13:33.494Z,101711.03
2023-05-06T17:16:00.147Z,101712.44
2023-05-06T17:18:26.772Z,101706.66
2023-05-06T17:20:56.617Z,101712.75
2023-05-06T17:23:24.085Z,101711.94
2023-05-06T17:25:51.042Z,101712.88
2023-05-06T17:28:18.666Z,101710.66
2023-05-06T17:30:45.958Z,101708.44
2023-05-06T17:33:12.712Z,101710.22
2023-05-06T17:35:39.328Z,101711.75
2023-05-06T17:38:05.895Z,101710.25
2023-05-06T17:40:32.410Z,101706.06
2023-05-06T17:42:59.002Z,101702.47
2023-05-06T17:45:26.776Z,101700.50
2023-05-06T17:47:53.613Z,101706.78
2023-05-06T17:50:20.500Z,101704.00
2023-05-06T17:52:50.687Z,101711.00
2023-05-06T17:55:17.865Z,101724.38
2023-05-06T17:57:44.639Z,101728.03
2023-05-06T18:00:11.719Z,101737.50
2023-05-06T18:02:38.447Z,101747.09
2023-05-06T18:05:06.370Z,101737.19
2023-05-06T18:07:33.029Z,101747.56
2023-05-06T18:09:59.529Z,101751.50
2023-05-06T18:12:26.168Z,101747.47
2023-05-06T18:14:52.814Z,101765.25
2023-05-06T18:17:19.247Z,101756.22
2023-05-06T18:19:45.753Z,101765.72
2023-05-06T18:22:12.314Z,101764.56
2023-05-06T18:24:38.747Z,101762.56
2023-05-06T18:27:05.353Z,101767.97
2023-05-06T18:29:33.191Z,101763.03
2023-05-06T18:32:00.323Z,101764.31
2023-05-06T18:34:26.869Z,101767.78
2023-05-06T18:36:53.889Z,101769.00
2023-05-06T18:39:22.997Z,101764.91
2023-05-06T18:41:49.412Z,101763.94
2023-05-06T18:44:15.859Z,101765.00
2023-05-06T18:46:42.304Z,101769.91
2023-05-06T18:49:08.706Z,101765.81
2023-05-06T18:51:35.291Z,101766.03
2023-05-06T18:54:01.692Z,101768.09
2023-05-06T18:56:28.213Z,101767.44
2023-05-06T18:58:54.673Z,101770.34
2023-05-06T19:01:21.497Z,101761.69
2023-05-06T19:03:47.976Z,101779.34
2023-05-06T19:06:14.535Z,101789.16
2023-05-06T19:08:41.055Z,101794.09
2023-05-06T19:11:14.459Z,101796.16
2023-05-06T19:13:42.464Z,101802.13
2023-05-06T19:16:09.161Z,101797.63
2023-05-06T19:18:35.810Z,101796.81
2023-05-06T19:21:02.637Z,101802.59
2023-05-06T19:23:29.202Z,101793.78
2023-05-06T19:25:55.720Z,101797.09
2023-05-06T19:28:22.193Z,101798.13
2023-05-06T19:30:48.692Z,101804.03
2023-05-06T19:33:16.288Z,101813.88
2023-05-06T19:35:42.809Z,101802.81
2023-05-06T19:38:09.664Z,101803.22
2023-05-06T19:40:36.217Z,101791.34
2023-05-06T19:43:05.645Z,101804.25
2023-05-06T19:45:33.334Z,101806.69
2023-05-06T19:48:00.898Z,101805.88
2023-05-06T19:50:28.359Z,101809.34
2023-05-06T19:52:54.820Z,101806.28
2023-05-06T19:55:22.081Z,101798.88
2023-05-06T19:57:49.564Z,101795.00
2023-05-06T20:00:18.221Z,101798.69
2023-05-06T20:02:45.603Z,101802.38
2023-05-06T20:05:12.554Z,101802.38
2023-05-06T20:07:39.424Z,101797.22
2023-05-06T20:10:06.551Z,101801.16
2023-05-06T20:12:33.368Z,101794.78
2023-05-06T20:14:59.905Z,101797.25
2023-05-06T20:17:26.858Z,101805.41
2023-05-06T20:19:54.363Z,101804.78
2023-05-06T20:22:20.757Z,101800.69
2023-05-06T20:24:47.216Z,101789.44
2023-05-06T20:27:13.674Z,101795.97
2023-05-06T20:29:40.776Z,101799.84
2023-05-06T20:32:07.188Z,101797.00
2023-05-06T20:34:33.769Z,101794.94
2023-05-06T20:37:01.342Z,101787.19
2023-05-06T20:39:27.827Z,101798.41
2023-05-06T20:41:54.411Z,101798.59
2023-05-06T20:44:20.902Z,101795.94
2023-05-06T20:46:47.352Z,101806.34
2023-05-06T20:49:13.883Z,101804.69
2023-05-06T20:51:40.332Z,101799.78
2023-05-06T20:54:07.134Z,101799.78
2023-05-06T20:56:33.576Z,101798.16
2023-05-06T20:59:00.084Z,101804.06
2023-05-06T21:01:27.175Z,101796.94
2023-05-06T21:03:53.870Z,101801.81
2023-05-06T21:06:20.357Z,101802.00
2023-05-06T21:08:47.025Z,101797.31
2023-05-06T21:11:13.837Z,101792.81
2023-05-06T21:13:40.926Z,101795.66
2023-05-06T21:16:07.566Z,101783.81
2023-05-06T21:18:34.193Z,101794.44
2023-05-06T21:21:01.025Z,101787.25
2023-05-06T21:23:27.560Z,101787.03
2023-05-06T21:25:54.092Z,101786.25
2023-05-06T21:28:20.493Z,101777.84
2023-05-06T21:30:47.029Z,101782.75
2023-05-06T21:33:13.525Z,101775.00
2023-05-06T21:35:40.118Z,101778.50
2023-05-06T21:38:06.664Z,101772.34
2023-05-06T21:40:33.154Z,101769.50
2023-05-06T21:42:59.776Z,101773.97
2023-05-06T21:45:26.538Z,101774.56
2023-05-06T21:47:53.182Z,101784.28
2023-05-06T21:50:19.909Z,101786.72
2023-05-06T21:52:46.345Z,101784.06
2023-05-06T21:55:13.324Z,101787.53
2023-05-06T21:57:39.929Z,101791.16
2023-05-06T22:00:12.282Z,101791.81
2023-05-06T22:02:40.117Z,101793.66
2023-05-06T22:05:08.076Z,101798.31
2023-05-06T22:07:35.757Z,101792.00
2023-05-06T22:10:02.548Z,101793.22
2023-05-06T22:12:29.002Z,101787.28
2023-05-06T22:14:55.933Z,101787.06
2023-05-06T22:17:22.421Z,101791.16
2023-05-06T22:19:49.035Z,101793.81
2023-05-06T22:22:16.019Z,101796.47
2023-05-06T22:24:42.552Z,101791.16
2023-05-06T22:27:08.965Z,101797.66
2023-05-06T22:29:35.496Z,101796.84
2023-05-06T22:32:02.311Z,101798.88
2023-05-06T22:34:28.782Z,101791.94
2023-05-06T22:36:57.597Z,101798.44
2023-05-06T22:39:24.828Z,101793.72
2023-05-06T22:41:51.352Z,101799.03
2023-05-06T22:44:17.838Z,101794.53
2023-05-06T22:46:44.352Z,101795.75
2023-05-06T22:49:10.848Z,101801.84
2023-05-06T22:51:37.342Z,101801.22
2023-05-06T22:54:03.838Z,101807.16
2023-05-06T22:56:30.325Z,101811.44
2023-05-06T22:58:56.754Z,101804.28
2023-05-06T23:01:25.196Z,101810.00
2023-05-06T23:03:51.965Z,101802.03
2023-05-06T23:06:18.620Z,101796.13
2023-05-06T23:08:45.063Z,101799.09
2023-05-06T23:11:11.559Z,101799.88
2023-05-06T23:13:38.078Z,101796.81
2023-05-06T23:16:05.207Z,101791.66
2023-05-06T23:18:31.745Z,101795.34
2023-05-06T23:20:58.196Z,101807.41
2023-05-06T23:23:24.620Z,101808.19
2023-05-06T23:25:51.236Z,101800.00
2023-05-06T23:28:17.726Z,101807.34
2023-05-06T23:30:44.217Z,101804.69
2023-05-06T23:33:10.754Z,101807.53
2023-05-06T23:35:37.368Z,101811.00
2023-05-06T23:38:03.941Z,101805.25
2023-05-06T23:40:30.526Z,101799.53
2023-05-06T23:42:56.980Z,101799.28
2023-05-06T23:45:25.646Z,101800.25
2023-05-06T23:47:52.730Z,101802.91
2023-05-06T23:50:20.005Z,101792.50
2023-05-06T23:52:46.478Z,101808.56
2023-05-06T23:55:13.301Z,101816.72
2023-05-06T23:57:40.053Z,101810.41
